createdAt,value
2017-01-14T00:00:15.783Z,995.39
2017-01-14T00:00:56.269Z,995.35
2017-01-14T00:01:36.783Z,995.44
2017-01-14T00:02:17.283Z,995.46
2017-01-14T00:02:57.798Z,995.47
2017-01-14T00:03:48.665Z,995.48
2017-01-14T00:04:31.638Z,995.5
2017-01-14T00:05:16.684Z,995.47
2017-01-14T00:05:58.641Z,995.46
2017-01-14T00:06:39.864Z,995.48
2017-01-14T00:07:22.638Z,995.48
2017-01-14T00:08:05.044Z,995.54
2017-01-14T00:08:46.192Z,995.57
2017-01-14T00:09:26.633Z,995.58
2017-01-14T00:10:07.126Z,995.57
2017-01-14T00:10:48.409Z,995.64
2017-01-14T00:11:29.437Z,995.58
2017-01-14T00:12:11.865Z,995.68
2017-01-14T00:12:52.946Z,995.65
2017-01-14T00:13:33.955Z,995.73
2017-01-14T00:14:14.447Z,995.74
2017-01-14T00:14:55.858Z,995.69
2017-01-14T00:15:36.384Z,995.69
2017-01-14T00:16:18.649Z,995.72
2017-01-14T00:17:05.681Z,995.75
2017-01-14T00:17:54.009Z,995.7
2017-01-14T00:18:37.311Z,995.71
2017-01-14T00:19:19.369Z,995.73
2017-01-14T00:20:02.378Z,995.7
2017-01-14T00:20:49.265Z,995.74
2017-01-14T00:21:32.668Z,995.73
2017-01-14T00:22:14.771Z,995.75
2017-01-14T00:22:58.650Z,995.76
2017-01-14T00:23:43.772Z,995.76
2017-01-14T00:24:24.886Z,995.77
2017-01-14T00:25:06.954Z,995.82
2017-01-14T00:25:49.661Z,995.9
2017-01-14T00:26:31.000Z,995.9
2017-01-14T00:27:13.379Z,995.91
2017-01-14T00:27:54.542Z,995.93
2017-01-14T00:28:35.541Z,995.93
2017-01-14T00:29:16.009Z,995.96
2017-01-14T00:29:56.492Z,995.9
2017-01-14T00:30:37.540Z,996
2017-01-14T00:33:11.766Z,996.09
2017-01-14T00:35:13.008Z,996.11
2017-01-14T00:37:29.490Z,996.21
2017-01-14T00:38:20.829Z,996.24
2017-01-14T00:39:02.200Z,996.28
2017-01-14T00:39:47.302Z,996.28
2017-01-14T00:40:27.797Z,996.34
2017-01-14T00:41:10.912Z,996.3
2017-01-14T00:41:52.210Z,996.33
2017-01-14T00:42:34.287Z,996.31
2017-01-14T00:43:16.337Z,996.35
2017-01-14T00:43:57.681Z,996.39
2017-01-14T00:44:38.154Z,996.32
2017-01-14T00:45:18.699Z,996.36
2017-01-14T00:45:59.775Z,996.3
2017-01-14T00:46:40.320Z,996.35
2017-01-14T00:47:22.439Z,996.38
2017-01-14T00:48:04.529Z,996.42
2017-01-14T00:48:47.541Z,996.4
2017-01-14T00:49:28.702Z,996.41
2017-01-14T00:50:10.797Z,996.43
2017-01-14T00:50:53.196Z,996.45
2017-01-14T00:51:36.923Z,996.47
2017-01-14T00:52:17.408Z,996.44
2017-01-14T00:53:00.403Z,996.46
2017-01-14T00:53:41.426Z,996.48
2017-01-14T00:54:24.416Z,996.52
2017-01-14T00:55:07.515Z,996.5
2017-01-14T00:55:49.770Z,996.48
2017-01-14T00:57:52.611Z,996.58
2017-01-14T00:58:37.024Z,996.61
2017-01-14T00:59:17.541Z,996.61
2017-01-14T00:59:59.493Z,996.58
2017-01-14T01:00:40.510Z,996.58
2017-01-14T01:01:22.495Z,996.56
2017-01-14T01:02:04.387Z,996.63
2017-01-14T01:02:44.858Z,996.63
2017-01-14T01:03:29.004Z,996.6
2017-01-14T01:04:09.486Z,996.68
2017-01-14T01:04:50.015Z,996.65
2017-01-14T01:05:31.174Z,996.66
2017-01-14T01:06:15.398Z,996.67
2017-01-14T01:06:55.860Z,996.72
2017-01-14T01:07:38.148Z,996.76
2017-01-14T01:08:20.390Z,996.76
2017-01-14T01:09:02.636Z,996.76
2017-01-14T01:09:45.378Z,996.79
2017-01-14T01:10:28.554Z,996.78
2017-01-14T01:11:09.015Z,996.87
2017-01-14T01:11:51.047Z,996.85
2017-01-14T01:12:31.529Z,996.9
2017-01-14T01:13:12.013Z,996.89
2017-01-14T01:13:52.528Z,996.93
2017-01-14T01:14:33.034Z,996.93
2017-01-14T01:15:14.510Z,996.94
2017-01-14T01:15:55.702Z,996.97
2017-01-14T01:16:36.799Z,997
2017-01-14T01:17:18.120Z,996.98
2017-01-14T01:17:58.598Z,996.99
2017-01-14T01:18:39.132Z,997.01
2017-01-14T01:19:20.102Z,997
2017-01-14T01:20:00.595Z,997
2017-01-14T01:20:41.575Z,997.02
2017-01-14T01:21:22.897Z,997.04
2017-01-14T01:22:03.384Z,997.02
2017-01-14T01:22:44.753Z,997.03
2017-01-14T01:23:26.236Z,997.02
2017-01-14T01:24:07.290Z,997.05
2017-01-14T01:24:48.710Z,997.09
2017-01-14T01:25:29.167Z,997.11
2017-01-14T01:26:11.408Z,997.11
2017-01-14T01:26:53.539Z,997.11
2017-01-14T01:27:35.584Z,997.1
2017-01-14T01:28:16.072Z,997.13
2017-01-14T01:28:56.552Z,997.09
2017-01-14T01:29:39.578Z,997.18
2017-01-14T01:30:21.383Z,997.19
2017-01-14T01:31:05.492Z,997.2
2017-01-14T01:31:47.403Z,997.23
2017-01-14T01:32:28.388Z,997.27
2017-01-14T01:33:08.907Z,997.29
2017-01-14T01:33:49.435Z,997.33
2017-01-14T01:34:32.681Z,997.37
2017-01-14T01:35:14.022Z,997.4
2017-01-14T01:35:55.399Z,997.44
2017-01-14T01:36:35.889Z,997.45
2017-01-14T01:37:16.396Z,997.53
2017-01-14T01:37:56.853Z,997.59
2017-01-14T01:38:39.017Z,997.57
2017-01-14T01:39:19.472Z,997.57
2017-01-14T01:40:02.380Z,997.59
2017-01-14T01:40:44.371Z,997.61
2017-01-14T01:41:25.590Z,997.62
2017-01-14T01:42:07.689Z,997.58
2017-01-14T01:42:49.008Z,997.61
2017-01-14T01:43:32.866Z,997.68
2017-01-14T01:44:16.192Z,997.69
2017-01-14T01:44:59.259Z,997.72
2017-01-14T01:45:39.761Z,997.7
2017-01-14T01:46:22.093Z,997.72
2017-01-14T01:47:02.631Z,997.74
2017-01-14T01:47:44.487Z,997.78
2017-01-14T01:48:28.491Z,997.73
2017-01-14T01:49:09.623Z,997.74
2017-01-14T01:49:52.493Z,997.75
2017-01-14T01:50:33.742Z,997.76
2017-01-14T01:51:17.510Z,997.82
2017-01-14T01:51:57.993Z,997.83
2017-01-14T01:52:39.369Z,997.8
2017-01-14T01:53:19.826Z,997.79
2017-01-14T01:54:02.036Z,997.82
2017-01-14T01:54:42.493Z,997.82
2017-01-14T01:55:24.682Z,997.84
2017-01-14T01:56:05.872Z,997.89
2017-01-14T01:56:47.184Z,997.92
2017-01-14T01:57:27.652Z,997.98
2017-01-14T01:58:09.107Z,998.03
2017-01-14T01:58:52.382Z,998
2017-01-14T01:59:34.510Z,998.03
2017-01-14T02:00:15.022Z,998.03
2017-01-14T02:00:56.280Z,998.04
2017-01-14T02:01:36.797Z,998.09
2017-01-14T02:02:18.138Z,998.09
2017-01-14T02:02:58.574Z,998.07
2017-01-14T02:03:40.590Z,998.09
2017-01-14T02:04:30.382Z,998.11
2017-01-14T02:05:11.809Z,998.14
2017-01-14T02:05:52.274Z,998.12
2017-01-14T02:06:36.400Z,998.11
2017-01-14T02:07:16.863Z,998.14
2017-01-14T02:07:59.996Z,998.12
2017-01-14T02:08:42.028Z,998.15
2017-01-14T02:09:22.514Z,998.13
2017-01-14T02:10:03.902Z,998.13
2017-01-14T02:10:44.326Z,998.14
2017-01-14T02:11:24.835Z,998.16
2017-01-14T02:12:05.990Z,998.15
2017-01-14T02:12:49.092Z,998.15
2017-01-14T02:13:30.174Z,998.14
2017-01-14T02:14:10.648Z,998.18
2017-01-14T02:14:53.380Z,998.13
2017-01-14T02:15:35.774Z,998.11
2017-01-14T02:16:17.025Z,998.1
2017-01-14T02:16:57.577Z,998.11
2017-01-14T02:17:40.378Z,998.18
2017-01-14T02:18:22.504Z,998.2
2017-01-14T02:19:05.358Z,998.26
2017-01-14T02:19:45.817Z,998.25
2017-01-14T02:20:30.875Z,998.28
2017-01-14T02:21:12.883Z,998.29
2017-01-14T02:21:54.242Z,998.27
2017-01-14T02:22:35.494Z,998.31
2017-01-14T02:23:16.044Z,998.26
2017-01-14T02:23:56.508Z,998.26
2017-01-14T02:24:38.362Z,998.3
2017-01-14T02:25:20.749Z,998.32
2017-01-14T02:26:01.770Z,998.31
2017-01-14T02:26:42.823Z,998.32
2017-01-14T02:27:26.002Z,998.32
2017-01-14T02:28:08.270Z,998.35
2017-01-14T02:28:49.635Z,998.29
2017-01-14T02:29:31.021Z,998.38
2017-01-14T02:30:14.027Z,998.37
2017-01-14T02:30:56.887Z,998.39
2017-01-14T02:31:39.246Z,998.4
2017-01-14T02:32:19.763Z,998.45
2017-01-14T02:33:03.125Z,998.51
2017-01-14T02:33:44.590Z,998.52
2017-01-14T02:34:25.750Z,998.54
2017-01-14T02:35:06.294Z,998.57
2017-01-14T02:35:48.607Z,998.57
2017-01-14T02:36:30.370Z,998.57
2017-01-14T02:37:10.867Z,998.56
2017-01-14T02:37:53.018Z,998.55
2017-01-14T02:38:37.892Z,998.62
2017-01-14T02:39:20.172Z,998.59
2017-01-14T02:40:01.567Z,998.63
2017-01-14T02:40:42.602Z,998.63
2017-01-14T02:41:24.497Z,998.64
2017-01-14T02:42:05.604Z,998.64
2017-01-14T02:42:47.864Z,998.62
2017-01-14T02:43:28.380Z,998.66
2017-01-14T02:44:08.882Z,998.62
2017-01-14T02:44:49.350Z,998.67
2017-01-14T02:45:31.492Z,998.6
2017-01-14T02:46:11.969Z,998.61
2017-01-14T02:46:55.041Z,998.61
2017-01-14T02:47:35.607Z,998.65
2017-01-14T02:48:17.000Z,998.65
2017-01-14T02:49:00.014Z,998.63
2017-01-14T02:54:34.852Z,998.67
2017-01-14T02:56:52.793Z,998.74
2017-01-14T03:27:23.188Z,999.02
2017-01-14T03:28:07.748Z,998.94
2017-01-14T03:28:48.226Z,998.98
2017-01-14T03:29:30.245Z,998.99
2017-01-14T03:30:12.139Z,998.93
2017-01-14T03:30:58.101Z,998.97
2017-01-14T03:31:39.118Z,998.93
2017-01-14T03:32:21.244Z,999
2017-01-14T03:33:01.721Z,998.91
2017-01-14T03:55:36.875Z,999.35
2017-01-14T03:57:41.638Z,999.42
2017-01-14T04:00:09.970Z,999.45
2017-01-14T04:00:51.548Z,999.49
2017-01-14T04:01:34.500Z,999.44
2017-01-14T04:02:15.788Z,999.46
2017-01-14T04:02:56.894Z,999.45
2017-01-14T04:03:40.267Z,999.49
2017-01-14T04:04:23.120Z,999.46
2017-01-14T04:05:07.873Z,999.47
2017-01-14T04:05:51.883Z,999.43
2017-01-14T04:06:33.115Z,999.43
2017-01-14T04:07:15.083Z,999.46
2017-01-14T04:07:56.235Z,999.47
2017-01-14T04:08:40.899Z,999.45
2017-01-14T04:09:30.011Z,999.49
2017-01-14T04:10:11.014Z,999.47
2017-01-14T04:10:54.860Z,999.5
2017-01-14T04:11:36.274Z,999.5
2017-01-14T04:12:20.501Z,999.48
2017-01-14T04:13:03.502Z,999.49
2017-01-14T04:13:45.701Z,999.51
2017-01-14T04:14:27.364Z,999.53
2017-01-14T04:15:08.638Z,999.53
2017-01-14T04:15:51.534Z,999.55
2017-01-14T04:16:33.489Z,999.51
2017-01-14T04:17:15.368Z,999.53
2017-01-14T04:17:57.380Z,999.55
2017-01-14T04:18:40.614Z,999.56
2017-01-14T04:19:25.508Z,999.58
2017-01-14T04:20:11.635Z,999.59
2017-01-14T04:20:52.793Z,999.6
2017-01-14T04:21:35.115Z,999.6
2017-01-14T04:22:19.082Z,999.58
2017-01-14T04:22:59.554Z,999.66
2017-01-14T04:23:40.881Z,999.66
2017-01-14T04:24:21.876Z,999.68
2017-01-14T04:25:03.859Z,999.67
2017-01-14T04:25:59.896Z,999.69
2017-01-14T04:26:40.880Z,999.7
2017-01-14T04:27:24.879Z,999.72
2017-01-14T04:29:26.541Z,999.79
2017-01-14T04:30:08.770Z,999.79
2017-01-14T04:30:50.933Z,999.77
2017-01-14T04:31:34.067Z,999.84
2017-01-14T04:32:16.068Z,999.84
2017-01-14T04:32:56.607Z,999.85
2017-01-14T04:33:38.864Z,999.82
2017-01-14T04:34:20.977Z,999.91
2017-01-14T04:35:03.955Z,999.87
2017-01-14T04:35:47.195Z,999.93
2017-01-14T04:36:28.184Z,999.92
2017-01-14T04:37:08.689Z,999.95
2017-01-14T04:37:49.968Z,1000.01
2017-01-14T04:38:33.094Z,999.97
2017-01-14T04:39:15.167Z,999.98
2017-01-14T04:39:56.280Z,1000
2017-01-14T04:40:36.750Z,999.98
2017-01-14T04:41:17.236Z,1000.02
2017-01-14T04:41:59.304Z,1000.03
2017-01-14T04:42:41.131Z,999.99
2017-01-14T04:43:26.972Z,1000.02
2017-01-14T04:44:07.415Z,1000.03
2017-01-14T04:44:49.588Z,1000.05
2017-01-14T04:45:31.434Z,1000.08
2017-01-14T04:46:13.729Z,1000.09
2017-01-14T04:46:56.801Z,1000.12
2017-01-14T04:47:38.579Z,1000.08
2017-01-14T04:48:19.598Z,1000.1
2017-01-14T04:49:00.056Z,1000.1
2017-01-14T04:49:42.108Z,1000.12
2017-01-14T04:50:26.232Z,1000.12
2017-01-14T04:51:07.939Z,1000.11
2017-01-14T04:51:50.192Z,1000.12
2017-01-14T04:52:31.315Z,1000.13
2017-01-14T04:53:12.402Z,1000.11
2017-01-14T04:53:55.565Z,1000.13
2017-01-14T04:54:41.747Z,1000.12
2017-01-14T04:55:27.432Z,1000.13
2017-01-14T04:56:09.456Z,1000.17
2017-01-14T04:56:52.453Z,1000.16
2017-01-14T04:57:38.444Z,1000.16
2017-01-14T04:58:22.446Z,1000.14
2017-01-14T04:59:05.433Z,1000.17
2017-01-14T04:59:48.592Z,1000.17
2017-01-14T05:00:31.493Z,1000.15
2017-01-14T05:01:13.775Z,1000.17
2017-01-14T05:01:54.214Z,1000.19
2017-01-14T05:02:40.066Z,1000.17
2017-01-14T05:03:24.163Z,1000.23
2017-01-14T05:05:24.171Z,1000.21
2017-01-14T05:06:09.912Z,1000.27
2017-01-14T05:06:51.776Z,1000.26
2017-01-14T05:07:37.390Z,1000.42
2017-01-14T05:08:19.374Z,1000.33
2017-01-14T05:09:03.700Z,1000.31
2017-01-14T05:09:55.363Z,1000.4
2017-01-14T05:10:39.516Z,1000.36
2017-01-14T05:11:22.384Z,1000.38
2017-01-14T05:12:07.399Z,1000.34
2017-01-14T05:12:54.403Z,1000.34
2017-01-14T05:13:37.532Z,1000.51
2017-01-14T05:14:19.492Z,1000.34
2017-01-14T05:15:00.912Z,1000.38
2017-01-14T05:15:43.921Z,1000.35
2017-01-14T05:16:37.008Z,1000.42
2017-01-14T05:17:19.885Z,1000.43
2017-01-14T05:18:01.883Z,1000.36
2017-01-14T05:18:59.258Z,1000.44
2017-01-14T05:19:41.402Z,1000.51
2017-01-14T05:20:22.697Z,1000.41
2017-01-14T05:21:04.687Z,1000.38
2017-01-14T05:21:54.503Z,1000.41
2017-01-14T05:25:29.359Z,1000.5
2017-01-14T05:26:22.777Z,1000.46
2017-01-14T05:27:03.273Z,1000.68
2017-01-14T05:27:45.283Z,1000.55
2017-01-14T05:28:32.307Z,1000.56
2017-01-14T05:29:15.307Z,1000.49
2017-01-14T05:29:58.525Z,1000.56
2017-01-14T05:30:39.050Z,1000.52
2017-01-14T05:31:21.808Z,1000.52
2017-01-14T05:32:05.943Z,1000.58
2017-01-14T05:32:46.449Z,1000.61
2017-01-14T05:33:34.302Z,1000.54
2017-01-14T05:34:19.324Z,1000.5
2017-01-14T05:35:05.286Z,1000.6
2017-01-14T05:35:49.477Z,1000.59
2017-01-14T05:36:32.510Z,1000.61
2017-01-14T05:37:25.324Z,1000.68
2017-01-14T05:38:09.290Z,1000.64
2017-01-14T05:38:53.427Z,1000.59
2017-01-14T05:39:36.415Z,1000.66
2017-01-14T05:40:18.296Z,1000.63
2017-01-14T05:41:04.331Z,1000.69
2017-01-14T05:42:00.511Z,1000.78
2017-01-14T05:42:47.331Z,1000.71
2017-01-14T05:43:43.423Z,1000.82
2017-01-14T05:44:24.518Z,1000.79
2017-01-14T05:45:20.307Z,1000.79
2017-01-14T05:46:06.469Z,1000.82
2017-01-14T05:46:50.318Z,1000.77
2017-01-14T05:47:32.602Z,1000.85
2017-01-14T05:48:19.307Z,1000.9
2017-01-14T05:49:06.297Z,1000.87
2017-01-14T05:49:49.424Z,1000.86
2017-01-14T05:50:32.524Z,1000.85
2017-01-14T05:51:18.281Z,1000.91
2017-01-14T05:52:03.426Z,1000.89
2017-01-14T05:52:43.922Z,1000.85
2017-01-14T05:53:26.204Z,1000.91
2017-01-14T05:54:10.526Z,1000.98
2017-01-14T05:54:55.304Z,1000.92
2017-01-14T05:57:30.978Z,1001.2
2017-01-14T05:58:12.771Z,1001.18
2017-01-14T05:58:58.588Z,1001.18
2017-01-14T05:59:40.604Z,1001.26
2017-01-14T06:00:29.621Z,1001.34
2017-01-14T06:01:13.635Z,1001.13
2017-01-14T06:01:54.116Z,1001.11
2017-01-14T06:02:39.107Z,1001.28
2017-01-14T06:03:28.123Z,1001.24
2017-01-14T06:04:10.154Z,1001.19
2017-01-14T06:05:02.353Z,1001.15
2017-01-14T06:05:45.097Z,1001.1
2017-01-14T06:06:26.331Z,1001.13
2017-01-14T06:07:06.803Z,1001.34
2017-01-14T06:07:47.245Z,1001.14
2017-01-14T06:08:28.464Z,1001.07
2017-01-14T06:09:10.433Z,1000.98
2017-01-14T06:09:54.114Z,1000.95
2017-01-14T06:10:35.096Z,1001.02
2017-01-14T06:11:17.111Z,1001.04
2017-01-14T06:11:58.350Z,1000.95
2017-01-14T06:12:38.803Z,1000.93
2017-01-14T06:13:21.987Z,1001.06
2017-01-14T06:14:07.601Z,1000.99
2017-01-14T06:14:49.979Z,1001.1
2017-01-14T06:15:32.621Z,1001.02
2017-01-14T06:16:17.851Z,1001
2017-01-14T06:17:11.120Z,1001
2017-01-14T06:17:52.501Z,1001.09
2017-01-14T06:18:39.340Z,1001.13
2017-01-14T06:19:22.242Z,1001.09
2017-01-14T06:20:03.296Z,1001.07
2017-01-14T06:20:45.362Z,1001.18
2017-01-14T06:21:28.282Z,1001.14
2017-01-14T06:22:12.356Z,1001.13
2017-01-14T06:22:56.085Z,1001.09
2017-01-14T06:23:39.098Z,1001.17
2017-01-14T06:24:22.108Z,1001.09
2017-01-14T06:25:04.265Z,1001.19
2017-01-14T06:25:50.364Z,1001.16
2017-01-14T06:26:34.291Z,1001.11
2017-01-14T06:27:21.086Z,1001.18
2017-01-14T06:28:05.205Z,1001.24
2017-01-14T06:28:46.238Z,1001.19
2017-01-14T06:29:31.126Z,1001.2
2017-01-14T06:30:21.315Z,1001.17
2017-01-14T06:31:08.217Z,1001.09
2017-01-14T06:31:53.220Z,1001.17
2017-01-14T06:32:36.224Z,1001.11
2017-01-14T06:33:34.304Z,1001.07
2017-01-14T06:34:14.763Z,1001.06
2017-01-14T06:34:55.237Z,1001.1
2017-01-14T06:36:54.716Z,1001.17
2017-01-14T06:37:35.202Z,1001.15
2017-01-14T06:38:16.422Z,1001.18
2017-01-14T06:38:56.904Z,1001.14
2017-01-14T06:39:40.118Z,1001.14
2017-01-14T06:40:23.014Z,1001.29
2017-01-14T06:41:07.010Z,1001.18
2017-01-14T06:41:48.359Z,1001.14
2017-01-14T06:42:29.748Z,1001.22
2017-01-14T06:43:13.513Z,1001.31
2017-01-14T06:43:55.511Z,1001.25
2017-01-14T06:44:43.667Z,1001.37
2017-01-14T06:45:30.513Z,1001.28
2017-01-14T06:46:13.721Z,1001.33
2017-01-14T06:46:56.724Z,1001.25
2017-01-14T06:47:52.533Z,1001.28
2017-01-14T06:48:34.509Z,1001.31
2017-01-14T06:49:16.894Z,1001.28
2017-01-14T06:49:59.643Z,1001.29
2017-01-14T06:50:41.915Z,1001.26
2017-01-14T06:51:27.525Z,1001.3
2017-01-14T06:52:09.527Z,1001.33
2017-01-14T06:54:31.256Z,1001.38
2017-01-14T06:55:14.581Z,1001.36
2017-01-14T06:55:57.729Z,1001.38
2017-01-14T06:56:39.888Z,1001.43
2017-01-14T06:57:22.580Z,1001.32
2017-01-14T06:58:06.733Z,1001.38
2017-01-14T06:58:54.565Z,1001.32
2017-01-14T06:59:39.589Z,1001.38
2017-01-14T07:00:20.085Z,1001.34
2017-01-14T07:01:03.319Z,1001.26
2017-01-14T07:01:44.568Z,1001.33
2017-01-14T07:02:25.097Z,1001.32
2017-01-14T07:03:09.086Z,1001.35
2017-01-14T07:03:50.093Z,1001.38
2017-01-14T07:04:33.089Z,1001.35
2017-01-14T07:05:13.559Z,1001.35
2017-01-14T07:05:57.585Z,1001.3
2017-01-14T07:06:40.568Z,1001.27
2017-01-14T07:07:24.712Z,1001.32
2017-01-14T07:08:08.580Z,1001.32
2017-01-14T07:10:23.759Z,1001.32
2017-01-14T07:11:04.686Z,1001.33
2017-01-14T07:11:46.790Z,1001.34
2017-01-14T07:12:29.793Z,1001.31
2017-01-14T07:13:14.670Z,1001.32
2017-01-14T07:15:32.255Z,1001.34
2017-01-14T07:16:16.711Z,1001.35
2017-01-14T07:18:17.486Z,1001.32
2017-01-14T07:19:00.833Z,1001.38
2017-01-14T07:19:42.229Z,1001.39
2017-01-14T07:20:27.297Z,1001.38
2017-01-14T07:21:15.313Z,1001.39
2017-01-14T07:21:57.304Z,1001.4
2017-01-14T07:22:38.643Z,1001.39
2017-01-14T07:23:19.724Z,1001.37
2017-01-14T07:24:11.452Z,1001.41
2017-01-14T07:24:53.428Z,1001.44
2017-01-14T07:25:33.928Z,1001.39
2017-01-14T07:26:17.187Z,1001.43
2017-01-14T07:28:32.284Z,1001.42
2017-01-14T07:29:15.473Z,1001.41
2017-01-14T07:30:01.478Z,1001.4
2017-01-14T07:30:52.458Z,1001.43
2017-01-14T07:31:34.589Z,1001.48
2017-01-14T07:32:17.796Z,1001.46
2017-01-14T07:33:00.440Z,1001.45
2017-01-14T07:33:49.477Z,1001.45
2017-01-14T07:34:31.611Z,1001.46
2017-01-14T07:35:13.684Z,1001.42
2017-01-14T07:37:29.296Z,1001.48
2017-01-14T07:38:11.759Z,1001.47
2017-01-14T07:38:58.729Z,1001.45
2017-01-14T07:39:42.630Z,1001.42
2017-01-14T07:40:33.626Z,1001.48
2017-01-14T07:41:14.915Z,1001.51
2017-01-14T07:41:56.117Z,1001.52
2017-01-14T07:42:37.444Z,1001.59
2017-01-14T07:43:18.546Z,1001.53
2017-01-14T07:44:02.629Z,1001.63
2017-01-14T07:44:45.624Z,1001.57
2017-01-14T07:45:42.649Z,1001.57
2017-01-14T07:46:26.631Z,1001.57
2017-01-14T07:47:10.968Z,1001.59
2017-01-14T07:49:27.982Z,1001.62
2017-01-14T07:50:11.813Z,1001.59
2017-01-14T07:50:54.820Z,1001.64
2017-01-14T07:51:35.316Z,1001.59
2017-01-14T07:52:19.192Z,1001.6
2017-01-14T07:53:02.332Z,1001.61
2017-01-14T07:53:45.333Z,1001.6
2017-01-14T07:54:28.348Z,1001.63
2017-01-14T07:55:08.894Z,1001.63
2017-01-14T07:55:52.833Z,1001.64
2017-01-14T07:56:39.815Z,1001.65
2017-01-14T07:57:21.964Z,1001.69
2017-01-14T07:58:04.933Z,1001.65
2017-01-14T07:58:46.224Z,1001.62
2017-01-14T07:59:32.344Z,1001.61
2017-01-14T08:00:17.314Z,1001.65
2017-01-14T08:01:12.430Z,1001.61
2017-01-14T08:01:56.189Z,1001.61
2017-01-14T08:02:49.216Z,1001.61
2017-01-14T08:05:08.348Z,1001.58
2017-01-14T08:05:55.300Z,1001.58
2017-01-14T08:06:36.445Z,1001.63
2017-01-14T08:07:16.887Z,1001.63
2017-01-14T08:08:01.944Z,1001.66
2017-01-14T08:08:43.988Z,1001.61
2017-01-14T08:09:27.771Z,1001.62
2017-01-14T08:10:11.989Z,1001.6
2017-01-14T08:10:54.897Z,1001.57
2017-01-14T08:11:36.265Z,1001.67
2017-01-14T08:13:52.492Z,1001.67
2017-01-14T08:14:32.732Z,1001.66
2017-01-14T08:15:17.812Z,1001.69
2017-01-14T08:16:01.071Z,1001.71
2017-01-14T08:16:44.292Z,1001.7
2017-01-14T08:17:26.267Z,1001.69
2017-01-14T08:18:10.349Z,1001.73
2017-01-14T08:18:51.414Z,1001.75
2017-01-14T08:19:31.885Z,1001.74
2017-01-14T08:20:12.412Z,1001.79
2017-01-14T08:20:52.944Z,1001.76
2017-01-14T08:21:34.530Z,1001.8
2017-01-14T08:22:16.684Z,1001.8
2017-01-14T08:22:58.536Z,1001.8
2017-01-14T08:23:40.044Z,1001.85
2017-01-14T08:24:22.246Z,1001.81
2017-01-14T08:25:04.025Z,1001.81
2017-01-14T08:25:48.135Z,1001.83
2017-01-14T08:26:31.351Z,1001.8
2017-01-14T08:27:12.567Z,1001.82
2017-01-14T08:27:53.115Z,1001.79
2017-01-14T08:28:33.585Z,1001.83
2017-01-14T08:29:14.082Z,1001.8
2017-01-14T08:29:56.166Z,1001.84
2017-01-14T08:30:36.653Z,1001.8
2017-01-14T08:31:17.154Z,1001.78
2017-01-14T08:31:58.528Z,1001.83
2017-01-14T08:32:40.856Z,1001.8
2017-01-14T08:33:21.311Z,1001.81
2017-01-14T08:34:01.827Z,1001.85
2017-01-14T08:34:42.959Z,1001.81
2017-01-14T08:35:25.754Z,1001.86
2017-01-14T08:36:06.241Z,1001.84
2017-01-14T08:36:46.730Z,1001.83
2017-01-14T08:37:27.270Z,1001.82
2017-01-14T08:38:11.056Z,1001.82
2017-01-14T08:38:51.502Z,1001.86
2017-01-14T08:39:32.027Z,1001.84
2017-01-14T08:40:14.037Z,1001.9
2017-01-14T08:40:55.339Z,1001.89
2017-01-14T08:41:36.534Z,1001.94
2017-01-14T08:42:18.549Z,1001.95
2017-01-14T08:43:01.521Z,1001.97
2017-01-14T08:43:45.549Z,1001.97
2017-01-14T08:44:30.687Z,1002.01
2017-01-14T08:45:12.673Z,1001.98
2017-01-14T08:45:55.656Z,1002.04
2017-01-14T08:46:44.547Z,1001.97
2017-01-14T08:47:26.648Z,1002.07
2017-01-14T08:48:08.776Z,1002.04
2017-01-14T08:48:50.747Z,1001.97
2017-01-14T08:50:44.878Z,1001.99
2017-01-14T08:51:27.134Z,1002.06
2017-01-14T08:52:07.615Z,1001.97
2017-01-14T08:52:59.067Z,1001.91
2017-01-14T08:53:53.955Z,1001.93
2017-01-14T08:54:37.035Z,1002.01
2017-01-14T08:55:21.945Z,1001.98
2017-01-14T08:56:05.130Z,1001.97
2017-01-14T08:56:47.579Z,1002.01
2017-01-14T08:57:28.067Z,1002.01
2017-01-14T08:58:09.320Z,1002.01
2017-01-14T08:58:56.323Z,1002.03
2017-01-14T08:59:39.325Z,1002.05
2017-01-14T09:00:26.326Z,1002.08
2017-01-14T09:01:11.330Z,1002.09
2017-01-14T09:02:03.330Z,1002.13
2017-01-14T09:02:45.537Z,1002.11
2017-01-14T09:03:27.464Z,1002.11
2017-01-14T09:04:10.452Z,1002.11
2017-01-14T09:04:52.536Z,1002.2
2017-01-14T09:05:36.350Z,1002.22
2017-01-14T09:06:20.352Z,1002.15
2017-01-14T09:07:03.478Z,1002.11
2017-01-14T09:07:47.327Z,1002.17
2017-01-14T09:08:31.360Z,1002.21
2017-01-14T09:09:11.840Z,1002.15
2017-01-14T09:09:53.956Z,1002.14
2017-01-14T09:10:35.245Z,1002.17
2017-01-14T09:11:26.970Z,1002.18
2017-01-14T09:12:11.820Z,1002.2
2017-01-14T09:12:53.211Z,1002.18
2017-01-14T09:13:38.322Z,1002.16
2017-01-14T09:14:20.624Z,1002.22
2017-01-14T09:15:01.084Z,1002.23
2017-01-14T09:15:45.458Z,1002.27
2017-01-14T09:16:25.923Z,1002.26
2017-01-14T09:17:07.252Z,1002.23
2017-01-14T09:17:50.438Z,1002.24
2017-01-14T09:18:41.671Z,1002.27
2017-01-14T09:19:25.952Z,1002.31
2017-01-14T09:20:18.816Z,1002.28
2017-01-14T09:21:01.840Z,1002.25
2017-01-14T09:21:45.242Z,1002.33
2017-01-14T09:22:28.309Z,1002.4
2017-01-14T09:23:12.468Z,1002.37
2017-01-14T09:23:59.320Z,1002.39
2017-01-14T09:24:57.454Z,1002.34
2017-01-14T09:25:55.348Z,1002.38
2017-01-14T09:26:40.449Z,1002.33
2017-01-14T09:27:23.461Z,1002.38
2017-01-14T09:28:04.735Z,1002.38
2017-01-14T09:28:50.826Z,1002.39
2017-01-14T09:29:35.155Z,1002.41
2017-01-14T09:30:20.321Z,1002.42
2017-01-14T09:31:07.324Z,1002.4
2017-01-14T09:31:51.626Z,1002.5
2017-01-14T09:32:32.147Z,1002.52
2017-01-14T09:33:14.309Z,1002.52
2017-01-14T09:33:56.570Z,1002.58
2017-01-14T09:38:03.912Z,1002.54
2017-01-14T09:38:47.381Z,1002.53
2017-01-14T09:39:35.587Z,1002.54
2017-01-14T09:40:16.080Z,1002.57
2017-01-14T09:40:58.040Z,1002.57
2017-01-14T09:41:40.979Z,1002.66
2017-01-14T09:42:32.911Z,1002.66
2017-01-14T09:43:13.413Z,1002.57
2017-01-14T09:43:57.364Z,1002.55
2017-01-14T09:44:41.581Z,1002.74
2017-01-14T09:45:23.574Z,1002.62
2017-01-14T09:46:06.392Z,1002.56
2017-01-14T09:46:51.514Z,1002.6
2017-01-14T09:47:33.366Z,1002.61
2017-01-14T09:48:15.776Z,1002.62
2017-01-14T09:48:56.227Z,1002.64
2017-01-14T09:49:40.882Z,1002.64
2017-01-14T09:50:34.926Z,1002.66
2017-01-14T09:51:21.987Z,1002.73
2017-01-14T09:52:09.003Z,1002.7
2017-01-14T09:52:50.259Z,1002.68
2017-01-14T09:53:31.489Z,1002.72
2017-01-14T09:56:03.086Z,1002.76
2017-01-14T09:56:45.337Z,1002.8
2017-01-14T09:57:36.052Z,1002.83
2017-01-14T09:58:21.220Z,1002.88
2017-01-14T09:59:07.309Z,1002.83
2017-01-14T10:00:02.148Z,1002.87
2017-01-14T10:00:52.046Z,1002.83
2017-01-14T10:01:42.021Z,1002.89
2017-01-14T10:02:24.708Z,1002.9
2017-01-14T10:03:14.561Z,1002.88
2017-01-14T10:03:57.682Z,1002.88
2017-01-14T10:04:46.548Z,1002.95
2017-01-14T10:05:28.762Z,1002.97
2017-01-14T10:06:12.432Z,1003.04
2017-01-14T10:06:56.541Z,1002.96
2017-01-14T10:07:37.015Z,1002.9
2017-01-14T10:08:21.068Z,1003.01
2017-01-14T10:09:08.372Z,1003.11
2017-01-14T10:10:01.156Z,1003.16
2017-01-14T10:10:46.313Z,1003.23
2017-01-14T10:11:28.561Z,1003.36
2017-01-14T10:12:14.711Z,1003.26
2017-01-14T10:13:11.294Z,1003.3
2017-01-14T10:14:02.061Z,1003.42
2017-01-14T10:14:55.046Z,1003.47
2017-01-14T10:15:42.164Z,1003.3
2017-01-14T10:16:31.162Z,1003.5
2017-01-14T10:17:20.192Z,1003.48
2017-01-14T10:18:13.024Z,1003.16
2017-01-14T10:19:05.154Z,1003.28
2017-01-14T10:19:53.160Z,1003.22
2017-01-14T10:20:36.046Z,1003.26
2017-01-14T10:21:25.071Z,1003.3
2017-01-14T10:22:10.328Z,1003.25
2017-01-14T10:22:56.243Z,1003.26
2017-01-14T10:23:45.025Z,1003.2
2017-01-14T10:24:35.035Z,1003.16
2017-01-14T10:25:24.034Z,1003.07
2017-01-14T10:26:11.031Z,1003.11
2017-01-14T10:28:28.075Z,1003.13
2017-01-14T10:29:12.645Z,1003.08
2017-01-14T10:29:57.847Z,1003.03